createdAt,value
2017-08-21T00:00:37.155Z,89.70
2017-08-21T00:03:34.646Z,89.20
2017-08-21T00:06:32.159Z,88.20
2017-08-21T00:09:29.703Z,87.00
2017-08-21T00:12:27.060Z,89.10
2017-08-21T00:15:26.442Z,88.50
2017-08-21T00:18:30.010Z,88.10
2017-08-21T00:21:27.551Z,87.70
2017-08-21T00:24:30.108Z,88.30
2017-08-21T00:27:27.647Z,86.70
2017-08-21T00:30:25.241Z,87.90
2017-08-21T00:33:22.923Z,88.70
2017-08-21T00:36:20.416Z,89.10
2017-08-21T00:39:17.986Z,89.10
2017-08-21T00:42:15.407Z,88.30
2017-08-21T00:45:12.919Z,88.30
2017-08-21T00:48:10.407Z,88.30
2017-08-21T00:51:08.050Z,87.90
2017-08-21T00:54:05.520Z,87.40
2017-08-21T00:57:04.219Z,88.00
2017-08-21T01:00:01.897Z,87.90
2017-08-21T01:02:59.462Z,87.40
2017-08-21T01:05:57.843Z,87.30
2017-08-21T01:08:55.515Z,87.80
2017-08-21T01:11:53.959Z,87.10
2017-08-21T01:14:51.609Z,87.20
2017-08-21T01:17:50.144Z,88.40
2017-08-21T01:20:47.755Z,88.40
2017-08-21T01:23:45.294Z,88.00
2017-08-21T01:26:42.850Z,87.70
2017-08-21T01:29:40.326Z,87.70
2017-08-21T01:32:37.995Z,87.60
2017-08-21T01:35:36.589Z,88.00
2017-08-21T01:38:33.928Z,88.00
2017-08-21T01:41:31.498Z,88.10
2017-08-21T01:44:29.146Z,88.40
2017-08-21T01:47:26.591Z,87.90
2017-08-21T01:50:24.018Z,87.40
2017-08-21T01:53:22.555Z,87.30
2017-08-21T01:56:21.351Z,87.10
2017-08-21T01:59:18.816Z,86.80
2017-08-21T02:02:16.503Z,86.70
2017-08-21T02:05:14.029Z,86.40
2017-08-21T02:08:14.647Z,86.80
2017-08-21T02:11:12.290Z,86.80
2017-08-21T02:14:09.638Z,86.50
2017-08-21T02:17:08.345Z,87.00
2017-08-21T02:20:05.855Z,86.80
2017-08-21T02:23:04.454Z,87.10
2017-08-21T02:26:02.160Z,87.00
2017-08-21T02:28:59.571Z,87.00
2017-08-21T02:31:57.043Z,87.00
2017-08-21T02:34:55.712Z,86.40
2017-08-21T02:37:53.024Z,87.00
2017-08-21T02:40:50.539Z,87.20
2017-08-21T02:43:48.308Z,87.50
2017-08-21T02:46:45.852Z,87.40
2017-08-21T02:49:43.385Z,87.70
2017-08-21T02:52:40.987Z,89.20
2017-08-21T02:55:38.663Z,89.80
2017-08-21T02:58:36.379Z,89.50
2017-08-21T03:01:36.626Z,89.00
2017-08-21T03:04:35.419Z,88.10
2017-08-21T03:07:32.961Z,87.70
2017-08-21T03:10:30.492Z,87.50
2017-08-21T03:13:27.978Z,87.30
2017-08-21T03:16:25.578Z,87.80
2017-08-21T03:19:23.067Z,88.10
2017-08-21T03:22:20.385Z,88.70
2017-08-21T03:25:17.991Z,89.20
2017-08-21T03:28:15.720Z,89.60
2017-08-21T03:31:13.212Z,90.00
2017-08-21T03:34:10.664Z,90.10
2017-08-21T03:37:08.043Z,90.20
2017-08-21T03:40:05.512Z,90.10
2017-08-21T03:43:02.923Z,90.10
2017-08-21T03:46:00.353Z,89.60
2017-08-21T03:48:58.898Z,89.50
2017-08-21T03:51:56.495Z,89.50
2017-08-21T03:54:54.026Z,89.10
2017-08-21T03:57:51.539Z,89.30
2017-08-21T04:00:49.118Z,89.30
2017-08-21T04:03:46.882Z,89.20
2017-08-21T04:06:44.315Z,89.00
2017-08-21T04:09:42.087Z,89.10
2017-08-21T04:12:40.475Z,89.10
2017-08-21T04:15:38.095Z,89.50
2017-08-21T04:18:35.567Z,89.60
2017-08-21T04:21:33.039Z,89.50
2017-08-21T04:24:30.607Z,89.90
2017-08-21T04:27:28.127Z,89.90
2017-08-21T04:30:26.513Z,89.70
2017-08-21T04:33:24.951Z,89.60
2017-08-21T04:36:23.491Z,89.40
2017-08-21T04:39:21.015Z,89.30
2017-08-21T04:42:21.534Z,89.10
2017-08-21T04:45:22.108Z,89.00
2017-08-21T04:48:19.547Z,88.80
2017-08-21T04:51:17.230Z,88.50
2017-08-21T04:54:25.797Z,88.40
2017-08-21T04:57:23.427Z,88.30
2017-08-21T05:00:23.985Z,88.60
2017-08-21T05:03:21.749Z,88.90
2017-08-21T05:06:19.314Z,88.50
2017-08-21T05:09:17.839Z,88.30
2017-08-21T05:12:21.535Z,88.30
2017-08-21T05:15:20.067Z,87.90
2017-08-21T05:18:17.474Z,88.10
2017-08-21T05:21:14.858Z,87.80
2017-08-21T05:24:12.363Z,87.70
2017-08-21T05:27:10.745Z,87.00
2017-08-21T05:30:11.293Z,87.00
2017-08-21T05:33:17.114Z,86.70
2017-08-21T05:36:14.557Z,87.90
2017-08-21T05:39:12.115Z,86.80
2017-08-21T05:42:09.771Z,86.60
2017-08-21T05:45:07.322Z,86.40
2017-08-21T05:48:04.827Z,86.60
2017-08-21T05:51:02.284Z,85.90
2017-08-21T05:53:59.929Z,85.90
2017-08-21T05:56:57.499Z,85.50
2017-08-21T05:59:55.012Z,85.30
2017-08-21T06:02:52.561Z,85.30
2017-08-21T06:05:50.050Z,84.90
2017-08-21T06:08:47.434Z,84.40
2017-08-21T06:11:44.891Z,83.80
2017-08-21T06:14:42.366Z,84.30
2017-08-21T06:17:40.064Z,83.80
2017-08-21T06:20:37.606Z,84.00
2017-08-21T06:23:34.994Z,81.30
2017-08-21T06:26:32.324Z,81.70
2017-08-21T06:29:29.951Z,81.50
2017-08-21T06:32:27.487Z,80.90
2017-08-21T06:35:25.029Z,81.10
2017-08-21T06:38:22.583Z,79.70
2017-08-21T06:41:20.206Z,78.90
2017-08-21T06:44:18.936Z,79.70
2017-08-21T06:47:16.434Z,80.20
2017-08-21T06:50:13.732Z,79.30
2017-08-21T06:53:11.320Z,78.70
2017-08-21T06:56:09.915Z,76.60
2017-08-21T06:59:07.558Z,76.50
2017-08-21T07:02:05.043Z,76.40
2017-08-21T07:05:02.578Z,76.00
2017-08-21T07:08:01.198Z,75.40
2017-08-21T07:10:58.865Z,75.20
2017-08-21T07:13:57.295Z,73.60
2017-08-21T07:16:54.775Z,72.80
2017-08-21T07:19:52.285Z,73.40
2017-08-21T07:22:49.745Z,73.40
2017-08-21T07:25:47.317Z,71.30
2017-08-21T07:28:44.724Z,72.40
2017-08-21T07:31:42.385Z,71.80
2017-08-21T07:34:39.477Z,70.70
2017-08-21T07:37:37.904Z,69.60
2017-08-21T07:40:36.278Z,70.80
2017-08-21T07:43:33.752Z,70.70
2017-08-21T07:46:31.064Z,70.70
2017-08-21T07:49:28.438Z,70.20
2017-08-21T07:52:26.019Z,68.60
2017-08-21T07:55:24.440Z,66.40
2017-08-21T07:58:21.881Z,65.60
2017-08-21T08:01:19.360Z,65.80
2017-08-21T08:04:17.066Z,65.50
2017-08-21T08:07:14.631Z,64.50
2017-08-21T08:10:12.195Z,63.90
2017-08-21T08:13:09.684Z,61.10
2017-08-21T08:16:07.201Z,62.70
2017-08-21T08:19:04.573Z,62.20
2017-08-21T08:22:01.964Z,64.30
2017-08-21T08:24:59.291Z,62.70
2017-08-21T08:27:56.921Z,62.90
2017-08-21T08:30:54.355Z,62.00
2017-08-21T08:33:51.685Z,62.00
2017-08-21T08:36:49.209Z,62.70
2017-08-21T08:39:46.442Z,62.20
2017-08-21T08:42:43.799Z,61.30
2017-08-21T08:45:41.243Z,63.20
2017-08-21T08:48:38.655Z,61.10
2017-08-21T08:51:36.108Z,62.60
2017-08-21T08:54:33.550Z,62.70
2017-08-21T08:57:30.998Z,62.20
2017-08-21T09:00:28.528Z,61.20
2017-08-21T09:03:26.106Z,61.30
2017-08-21T09:06:23.553Z,59.90
2017-08-21T09:09:21.091Z,59.80
2017-08-21T09:12:18.546Z,60.80
2017-08-21T09:15:16.054Z,59.40
2017-08-21T09:18:13.577Z,60.00
2017-08-21T09:21:12.264Z,58.90
2017-08-21T09:24:09.691Z,58.80
2017-08-21T09:27:08.179Z,56.70
2017-08-21T09:30:05.824Z,56.70
2017-08-21T09:33:03.289Z,54.60
2017-08-21T09:36:01.761Z,53.40
2017-08-21T09:38:59.169Z,55.50
2017-08-21T09:41:56.526Z,53.90
2017-08-21T09:44:53.982Z,54.10
2017-08-21T09:47:51.434Z,54.40
2017-08-21T09:50:49.049Z,52.70
2017-08-21T09:53:46.531Z,53.30
2017-08-21T09:56:44.008Z,51.90
2017-08-21T09:59:41.483Z,53.50
2017-08-21T10:02:38.944Z,52.60
2017-08-21T10:05:36.550Z,52.40
2017-08-21T10:08:34.126Z,53.30
2017-08-21T10:11:31.680Z,51.10
2017-08-21T10:14:29.209Z,52.70
2017-08-21T10:18:31.637Z,51.90
2017-08-21T10:21:29.659Z,50.90
2017-08-21T10:24:27.408Z,49.40
2017-08-21T10:27:24.923Z,51.20
2017-08-21T10:30:23.535Z,46.30
2017-08-21T10:33:21.450Z,44.80
2017-08-21T10:36:19.105Z,48.60
2017-08-21T10:39:16.913Z,47.20
2017-08-21T10:42:14.697Z,48.20
2017-08-21T10:45:12.499Z,50.60
2017-08-21T10:48:11.239Z,46.60
2017-08-21T10:51:10.088Z,48.10
2017-08-21T10:54:07.903Z,48.30
2017-08-21T10:57:06.987Z,45.50
2017-08-21T11:00:05.753Z,45.60
2017-08-21T11:03:04.545Z,47.20
2017-08-21T11:06:03.254Z,45.80
2017-08-21T11:09:02.189Z,44.40
2017-08-21T11:12:00.018Z,46.10
2017-08-21T11:14:58.884Z,43.60
2017-08-21T11:17:56.654Z,44.50
2017-08-21T11:20:54.441Z,43.20
2017-08-21T11:24:01.288Z,40.40
2017-08-21T11:26:58.408Z,39.70
2017-08-21T11:29:57.126Z,42.60
2017-08-21T11:32:54.999Z,43.30
2017-08-21T11:35:54.506Z,41.60
2017-08-21T11:38:52.282Z,43.80
2017-08-21T11:41:51.954Z,46.00
2017-08-21T11:44:50.815Z,46.80
2017-08-21T11:47:49.725Z,46.10
2017-08-21T11:50:47.622Z,43.70
2017-08-21T11:53:45.595Z,43.90
2017-08-21T11:56:46.390Z,46.80
2017-08-21T11:59:44.982Z,44.40
2017-08-21T12:02:42.836Z,45.00
2017-08-21T12:05:42.680Z,47.90
2017-08-21T12:08:40.602Z,43.80
2017-08-21T12:11:40.495Z,45.90
2017-08-21T12:14:41.214Z,47.00
2017-08-21T12:17:39.064Z,47.00
2017-08-21T12:20:36.980Z,46.20
2017-08-21T12:23:34.455Z,47.00
2017-08-21T12:26:34.003Z,45.00
2017-08-21T12:29:32.647Z,46.70
2017-08-21T12:32:30.363Z,47.90
2017-08-21T12:35:29.231Z,46.00
2017-08-21T12:38:26.943Z,48.40
2017-08-21T12:41:24.714Z,47.60
2017-08-21T12:44:22.372Z,45.10
2017-08-21T12:47:20.374Z,45.80
2017-08-21T12:50:18.155Z,44.40
2017-08-21T12:53:15.989Z,42.90
2017-08-21T12:56:13.721Z,45.20
2017-08-21T12:59:11.312Z,47.30
2017-08-21T13:02:09.054Z,47.80
2017-08-21T13:05:06.893Z,47.00
2017-08-21T13:08:04.707Z,45.20
2017-08-21T13:11:02.783Z,46.40
2017-08-21T13:14:00.706Z,44.50
2017-08-21T13:16:59.299Z,44.40
2017-08-21T13:19:57.195Z,44.00
2017-08-21T13:22:55.584Z,46.30
2017-08-21T13:25:53.374Z,47.70
2017-08-21T13:28:51.091Z,47.60
2017-08-21T13:31:48.821Z,48.80
2017-08-21T13:34:48.357Z,49.70
2017-08-21T13:37:46.074Z,47.10
2017-08-21T13:40:43.855Z,50.00
2017-08-21T13:43:41.876Z,48.90
2017-08-21T13:46:39.739Z,48.10
2017-08-21T13:49:37.445Z,44.60
2017-08-21T13:52:35.235Z,46.00
2017-08-21T13:55:33.017Z,44.80
2017-08-21T13:58:31.692Z,44.50
2017-08-21T14:01:30.534Z,43.00
2017-08-21T14:04:28.424Z,41.40
2017-08-21T14:07:25.986Z,42.30
2017-08-21T14:10:23.987Z,42.60
2017-08-21T14:13:22.059Z,41.90
2017-08-21T14:16:19.630Z,42.60
2017-08-21T14:19:17.565Z,42.10
2017-08-21T14:22:15.143Z,41.30
2017-08-21T14:25:12.890Z,43.00
2017-08-21T14:28:10.561Z,43.40
2017-08-21T14:31:08.318Z,43.80
2017-08-21T14:34:06.255Z,44.40
2017-08-21T14:37:03.899Z,44.00
2017-08-21T14:40:01.840Z,48.50
2017-08-21T14:42:59.717Z,44.70
2017-08-21T14:45:57.656Z,44.80
2017-08-21T14:48:55.433Z,41.20
2017-08-21T14:51:53.338Z,42.90
2017-08-21T14:54:51.047Z,43.00
2017-08-21T14:57:48.549Z,41.40
2017-08-21T15:00:49.334Z,43.60
2017-08-21T15:03:47.011Z,44.60
2017-08-21T15:06:44.832Z,42.10
2017-08-21T15:09:42.649Z,41.60
2017-08-21T15:12:40.302Z,42.20
2017-08-21T15:15:38.045Z,42.90
2017-08-21T15:18:36.756Z,45.20
2017-08-21T15:21:34.830Z,44.30
2017-08-21T15:24:33.488Z,43.30
2017-08-21T15:27:31.200Z,43.20
2017-08-21T15:30:28.955Z,42.80
2017-08-21T15:33:26.809Z,41.90
2017-08-21T15:36:24.520Z,44.20
2017-08-21T15:39:22.018Z,44.20
2017-08-21T15:42:19.710Z,43.60
2017-08-21T15:45:17.346Z,44.10
2017-08-21T15:48:14.924Z,43.70
2017-08-21T15:51:13.014Z,41.60
2017-08-21T15:54:10.858Z,42.80
2017-08-21T15:57:08.503Z,44.30
2017-08-21T16:00:06.283Z,41.50
2017-08-21T16:03:04.930Z,42.40
2017-08-21T16:06:02.691Z,42.90
2017-08-21T16:09:00.342Z,42.30
2017-08-21T16:11:58.236Z,43.10
2017-08-21T16:14:55.901Z,44.00
2017-08-21T16:17:55.727Z,44.90
2017-08-21T16:20:53.251Z,44.50
2017-08-21T16:23:51.918Z,45.30
2017-08-21T16:26:50.630Z,45.00
2017-08-21T16:29:49.483Z,45.50
2017-08-21T16:32:47.071Z,43.50
2017-08-21T16:35:47.999Z,44.50
2017-08-21T16:38:45.814Z,46.00
2017-08-21T16:41:43.472Z,44.60
2017-08-21T16:44:41.087Z,45.40
2017-08-21T16:47:38.704Z,46.20
2017-08-21T16:50:36.436Z,45.30
2017-08-21T16:53:34.209Z,45.20
2017-08-21T16:56:32.072Z,45.50
2017-08-21T16:59:29.795Z,46.20
2017-08-21T17:02:27.716Z,47.20
2017-08-21T17:05:25.431Z,45.70
2017-08-21T17:08:26.363Z,47.40
2017-08-21T17:11:26.246Z,45.80
2017-08-21T17:14:24.202Z,45.80
2017-08-21T17:17:23.082Z,47.80
2017-08-21T17:20:22.078Z,49.20
2017-08-21T17:23:19.623Z,49.30
2017-08-21T17:26:17.360Z,49.10
2017-08-21T17:29:15.088Z,48.20
2017-08-21T17:32:13.504Z,48.60
2017-08-21T17:35:11.336Z,48.30
2017-08-21T17:38:09.999Z,49.60
2017-08-21T17:41:07.634Z,49.30
2017-08-21T17:44:06.203Z,49.20
2017-08-21T17:47:03.974Z,52.30
2017-08-21T17:50:01.709Z,53.90
2017-08-21T17:52:58.662Z,52.80
2017-08-21T17:55:56.422Z,51.70
2017-08-21T17:58:54.048Z,51.00
2017-08-21T18:01:51.678Z,53.20
2017-08-21T18:04:49.539Z,53.70
2017-08-21T18:07:52.391Z,54.30
2017-08-21T18:10:50.200Z,55.90
2017-08-21T18:13:51.968Z,59.00
2017-08-21T18:16:49.770Z,61.80
2017-08-21T18:19:47.628Z,64.30
2017-08-21T18:22:45.607Z,65.40
2017-08-21T18:25:44.443Z,67.30
2017-08-21T18:28:42.191Z,68.50
2017-08-21T18:31:40.337Z,68.80
2017-08-21T18:34:38.106Z,70.30
2017-08-21T18:37:35.847Z,72.70
2017-08-21T18:40:33.468Z,74.90
2017-08-21T18:43:32.233Z,76.40
2017-08-21T18:46:30.011Z,76.70
2017-08-21T18:49:27.938Z,75.70
2017-08-21T18:52:25.748Z,75.50
2017-08-21T18:55:23.660Z,74.10
2017-08-21T18:58:21.290Z,74.20
2017-08-21T19:01:19.161Z,73.70
2017-08-21T19:04:17.304Z,73.50
2017-08-21T19:07:19.253Z,74.30
2017-08-21T19:10:22.982Z,76.60
2017-08-21T19:13:36.685Z,77.80
2017-08-21T19:16:34.607Z,79.00
2017-08-21T19:19:32.062Z,81.00
2017-08-21T19:22:29.727Z,77.90
2017-08-21T19:25:27.544Z,75.50
2017-08-21T19:28:25.395Z,78.20
2017-08-21T19:31:23.244Z,77.90
2017-08-21T19:34:21.098Z,78.20
2017-08-21T19:37:18.691Z,77.90
2017-08-21T19:40:16.327Z,78.30
2017-08-21T19:43:13.972Z,78.50
2017-08-21T19:46:11.865Z,79.80
2017-08-21T19:49:09.788Z,79.70
2017-08-21T19:52:07.630Z,79.90
2017-08-21T19:55:05.347Z,79.90
2017-08-21T19:58:03.007Z,80.20
2017-08-21T20:01:00.990Z,79.20
2017-08-21T20:03:58.707Z,79.60
2017-08-21T20:06:56.569Z,79.80
2017-08-21T20:09:54.196Z,80.10
2017-08-21T20:13:06.147Z,79.60
2017-08-21T20:16:04.069Z,79.80
2017-08-21T20:19:01.260Z,81.60
2017-08-21T20:21:59.258Z,81.80
2017-08-21T20:24:56.962Z,82.40
2017-08-21T20:27:54.541Z,82.80
2017-08-21T20:30:52.413Z,84.00
2017-08-21T20:33:50.175Z,83.60
2017-08-21T20:36:48.134Z,83.00
2017-08-21T20:39:46.040Z,82.10
2017-08-21T20:42:43.885Z,82.30
2017-08-21T20:45:40.903Z,83.30
2017-08-21T20:48:38.827Z,84.00
2017-08-21T20:51:36.600Z,84.10
2017-08-21T20:54:34.456Z,83.90
2017-08-21T20:57:31.974Z,84.00
2017-08-21T21:00:29.863Z,84.00
2017-08-21T21:03:27.762Z,85.10
2017-08-21T21:06:25.630Z,84.30
2017-08-21T21:09:23.326Z,84.10
2017-08-21T21:12:20.390Z,84.70
2017-08-21T21:15:18.255Z,85.10
2017-08-21T21:18:16.032Z,84.00
2017-08-21T21:21:13.599Z,83.30
2017-08-21T21:24:11.480Z,85.40
2017-08-21T21:27:09.315Z,84.40
2017-08-21T21:30:07.310Z,86.70
2017-08-21T21:33:05.063Z,86.90
2017-08-21T21:36:02.848Z,86.10
2017-08-21T21:39:00.476Z,85.90
2017-08-21T21:41:58.384Z,87.00
2017-08-21T21:44:56.123Z,87.40
2017-08-21T21:47:54.827Z,88.90
2017-08-21T21:50:53.363Z,89.60
2017-08-21T21:53:50.822Z,90.50
2017-08-21T21:56:48.591Z,88.70
2017-08-21T21:59:46.208Z,90.00
2017-08-21T22:02:47.053Z,89.50
2017-08-21T22:05:44.743Z,89.60
2017-08-21T22:08:42.356Z,89.90
2017-08-21T22:15:07.095Z,90.00
2017-08-21T22:18:04.968Z,90.30
2017-08-21T22:21:02.818Z,90.00
2017-08-21T22:24:00.640Z,89.20
2017-08-21T22:26:58.380Z,88.90
2017-08-21T22:29:56.298Z,89.90
2017-08-21T22:32:53.404Z,88.20
2017-08-21T22:35:51.286Z,89.80
2017-08-21T22:38:49.050Z,91.00
2017-08-21T22:41:46.866Z,90.80
2017-08-21T22:44:44.852Z,90.40
2017-08-21T22:47:42.683Z,90.50
2017-08-21T22:50:40.697Z,90.40
2017-08-21T22:53:38.458Z,90.70
2017-08-21T22:56:36.219Z,90.90
2017-08-21T22:59:33.886Z,91.00
2017-08-21T23:02:34.479Z,91.40
2017-08-21T23:05:32.226Z,90.70
2017-08-21T23:08:29.966Z,90.20
2017-08-21T23:11:27.898Z,90.50
2017-08-21T23:14:25.499Z,91.00
2017-08-21T23:17:23.370Z,90.50
2017-08-21T23:20:21.072Z,90.50
2017-08-21T23:23:18.743Z,90.80
2017-08-21T23:26:16.450Z,90.60
2017-08-21T23:29:14.541Z,90.90
2017-08-21T23:32:12.360Z,91.20
2017-08-21T23:35:10.229Z,91.50
2017-08-21T23:38:08.035Z,91.80
2017-08-21T23:41:06.974Z,91.50
2017-08-21T23:44:04.886Z,91.80
2017-08-21T23:47:02.854Z,91.30
2017-08-21T23:50:00.767Z,91.40
2017-08-21T23:52:59.543Z,90.40
2017-08-21T23:55:57.202Z,90.40
2017-08-21T23:58:54.763Z,90.80
